createdAt,value
2022-12-13T00:01:53.067Z,37.38
2022-12-13T00:04:22.585Z,35.33
2022-12-13T00:06:51.385Z,38.97
2022-12-13T00:09:20.469Z,37.70
2022-12-13T00:11:49.200Z,40.30
2022-12-13T00:14:17.108Z,41.72
2022-12-13T00:16:49.703Z,42.85
2022-12-13T00:19:18.956Z,36.75
2022-12-13T00:21:46.498Z,36.50
2022-12-13T00:24:14.651Z,36.33
2022-12-13T00:26:42.198Z,42.72
2022-12-13T00:29:10.296Z,44.70
2022-12-13T00:32:00.020Z,46.70
2022-12-13T00:34:26.147Z,33.70
2022-12-13T00:36:59.158Z,39.90
2022-12-13T00:39:27.326Z,35.78
2022-12-13T00:41:54.848Z,43.63
2022-12-13T00:44:22.458Z,37.92
2022-12-13T00:46:51.748Z,39.72
2022-12-13T00:49:19.564Z,36.10
2022-12-13T00:51:48.228Z,42.45
2022-12-13T00:54:16.018Z,39.20
2022-12-13T00:56:43.631Z,35.40
2022-12-13T00:59:15.574Z,39.55
2022-12-13T01:01:43.163Z,30.77
2022-12-13T01:04:11.567Z,32.83
2022-12-13T01:06:49.667Z,45.10
2022-12-13T01:09:21.273Z,44.30
2022-12-13T01:11:49.813Z,45.55
2022-12-13T01:14:18.734Z,38.35
2022-12-13T01:16:46.336Z,38.63
2022-12-13T01:19:13.951Z,49.40
2022-12-13T01:21:41.464Z,43.92
2022-12-13T01:24:09.182Z,41.35
2022-12-13T01:26:36.723Z,38.03
2022-12-13T01:29:05.640Z,42.45
2022-12-13T01:31:34.053Z,39.67
2022-12-13T01:34:10.201Z,35.97
2022-12-13T01:36:38.554Z,35.20
2022-12-13T01:39:14.370Z,39.10
2022-12-13T01:41:44.656Z,40.95
2022-12-13T01:44:49.693Z,37.15
2022-12-13T01:47:20.904Z,42.42
2022-12-13T01:49:48.784Z,37.47
2022-12-13T01:52:17.418Z,42.35
2022-12-13T01:54:49.022Z,32.17
2022-12-13T01:57:19.529Z,40.90
2022-12-13T01:59:48.231Z,48.60
2022-12-13T02:02:16.228Z,40.35
2022-12-13T02:04:54.492Z,39.75
2022-12-13T02:07:27.554Z,36.70
2022-12-13T02:09:58.585Z,39.60
2022-12-13T02:12:30.369Z,38.38
2022-12-13T02:15:01.816Z,39.22
2022-12-13T02:17:53.937Z,38.33
2022-12-13T02:20:53.747Z,42.20
2022-12-13T02:23:33.433Z,40.30
2022-12-13T02:26:45.315Z,39.83
2022-12-13T02:29:34.101Z,42.20
2022-12-13T02:32:32.317Z,42.63
2022-12-13T02:35:12.349Z,30.88
2022-12-13T02:37:58.652Z,39.65
2022-12-13T02:40:47.811Z,36.60
2022-12-13T02:43:36.485Z,32.45
2022-12-13T02:46:16.296Z,37.20
2022-12-13T02:48:44.847Z,43.65
2022-12-13T02:51:13.689Z,43.65
2022-12-13T02:53:42.453Z,43.55
2022-12-13T02:56:09.981Z,40.38
2022-12-13T02:58:44.357Z,43.17
2022-12-13T03:01:43.700Z,50.92
2022-12-13T03:04:22.185Z,48.33
2022-12-13T03:06:54.396Z,40.13
2022-12-13T03:09:40.392Z,38.42
2022-12-13T03:12:49.448Z,38.90
2022-12-13T03:15:23.359Z,43.05
2022-12-13T03:17:55.161Z,36.78
2022-12-13T03:20:26.203Z,40.75
2022-12-13T03:22:55.274Z,42.75
2022-12-13T03:25:31.306Z,42.50
2022-12-13T03:28:01.243Z,58.70
2022-12-13T03:30:30.999Z,40.90
2022-12-13T03:32:58.476Z,40.63
2022-12-13T03:35:34.819Z,39.30
2022-12-13T03:38:13.409Z,39.50
2022-12-13T03:40:52.168Z,39.65
2022-12-13T03:43:21.633Z,39.10
2022-12-13T03:45:50.141Z,41.92
2022-12-13T03:48:22.801Z,36.95
2022-12-13T03:50:51.497Z,37.53
2022-12-13T03:53:22.617Z,42.47
2022-12-13T03:55:51.003Z,42.08
2022-12-13T03:58:18.936Z,42.67
2022-12-13T04:00:46.875Z,45.53
2022-12-13T04:03:14.801Z,37.78
2022-12-13T04:05:42.484Z,40.35
2022-12-13T04:08:21.809Z,49.85
2022-12-13T04:10:50.033Z,43.78
2022-12-13T04:13:35.138Z,52.13
2022-12-13T04:16:03.697Z,53.95
2022-12-13T04:18:31.508Z,51.75
2022-12-13T04:20:59.089Z,42.97
2022-12-13T04:23:26.618Z,49.92
2022-12-13T04:25:54.279Z,44.90
2022-12-13T04:28:22.930Z,49.80
2022-12-13T04:30:53.356Z,49.47
2022-12-13T04:33:22.982Z,46.05
2022-12-13T04:35:51.453Z,47.88
2022-12-13T04:38:19.741Z,43.33
2022-12-13T04:40:47.559Z,51.17
2022-12-13T04:43:15.063Z,52.00
2022-12-13T04:45:42.754Z,49.90
2022-12-13T04:48:10.502Z,49.03
2022-12-13T04:50:38.109Z,50.47
2022-12-13T04:53:05.578Z,47.00
2022-12-13T04:55:33.053Z,45.55
2022-12-13T04:58:00.518Z,48.20
2022-12-13T05:00:28.074Z,50.33
2022-12-13T05:02:55.680Z,50.38
2022-12-13T05:05:23.397Z,45.42
2022-12-13T05:07:50.930Z,40.17
2022-12-13T05:10:36.132Z,49.30
2022-12-13T05:13:05.378Z,52.33
2022-12-13T05:15:33.572Z,43.50
2022-12-13T05:18:09.822Z,55.92
2022-12-13T05:20:39.699Z,48.33
2022-12-13T05:23:07.384Z,47.45
2022-12-13T05:25:36.942Z,49.28
2022-12-13T05:28:09.078Z,47.50
2022-12-13T05:30:53.585Z,48.13
2022-12-13T05:33:21.122Z,51.17
2022-12-13T05:35:48.846Z,48.72
2022-12-13T05:38:16.443Z,61.78
2022-12-13T05:40:44.052Z,46.15
2022-12-13T05:43:21.861Z,44.15
2022-12-13T05:45:50.146Z,47.65
2022-12-13T05:48:24.521Z,48.03
2022-12-13T05:51:10.025Z,46.33
2022-12-13T05:53:39.235Z,53.65
2022-12-13T05:56:06.940Z,45.67
2022-12-13T05:58:36.136Z,50.05
2022-12-13T06:01:12.104Z,47.83
2022-12-13T06:03:40.607Z,47.28
2022-12-13T06:06:10.261Z,44.78
2022-12-13T06:08:38.534Z,42.30
2022-12-13T06:11:10.648Z,47.03
2022-12-13T06:13:42.613Z,40.58
2022-12-13T06:16:21.895Z,45.70
2022-12-13T06:19:01.015Z,45.15
2022-12-13T06:21:40.836Z,55.90
2022-12-13T06:24:11.304Z,39.33
2022-12-13T06:26:38.797Z,35.85
2022-12-13T06:29:06.309Z,43.35
2022-12-13T06:31:33.855Z,47.75
2022-12-13T06:34:15.325Z,48.78
2022-12-13T06:36:43.928Z,47.50
2022-12-13T06:39:11.555Z,46.30
2022-12-13T06:41:39.156Z,48.03
2022-12-13T06:44:06.707Z,44.35
2022-12-13T06:46:34.820Z,49.58
2022-12-13T06:49:02.412Z,47.15
2022-12-13T06:51:32.484Z,44.58
2022-12-13T06:54:01.437Z,42.38
2022-12-13T06:56:29.947Z,49.65
2022-12-13T06:59:01.656Z,44.47
2022-12-13T07:01:37.618Z,44.65
2022-12-13T07:04:28.989Z,50.00
2022-12-13T07:06:56.565Z,47.22
2022-12-13T07:09:31.460Z,44.33
2022-12-13T07:11:59.244Z,42.03
2022-12-13T07:14:26.902Z,47.10
2022-12-13T07:16:59.616Z,52.00
2022-12-13T07:19:34.922Z,45.72
2022-12-13T07:22:05.871Z,51.97
2022-12-13T07:24:33.801Z,47.70
2022-12-13T07:27:01.316Z,48.70
2022-12-13T07:29:28.878Z,42.83
2022-12-13T07:32:01.496Z,45.15
2022-12-13T07:34:30.118Z,53.00
2022-12-13T07:36:57.769Z,42.58
2022-12-13T07:39:27.034Z,46.97
2022-12-13T07:41:56.580Z,48.88
2022-12-13T07:44:25.293Z,52.72
2022-12-13T07:46:53.656Z,42.65
2022-12-13T07:49:21.312Z,56.20
2022-12-13T07:51:49.097Z,53.70
2022-12-13T07:54:16.838Z,49.33
2022-12-13T07:56:44.506Z,41.55
2022-12-13T07:59:13.617Z,44.78
2022-12-13T08:01:41.223Z,51.88
2022-12-13T08:04:09.256Z,40.17
2022-12-13T08:06:38.362Z,52.13
2022-12-13T08:09:06.822Z,43.65
2022-12-13T08:11:34.560Z,48.50
2022-12-13T08:14:02.072Z,53.38
2022-12-13T08:16:30.333Z,50.63
2022-12-13T08:19:02.697Z,53.95
2022-12-13T08:21:57.486Z,44.35
2022-12-13T08:24:30.729Z,52.13
2022-12-13T08:27:03.489Z,51.40
2022-12-13T08:29:36.251Z,58.30
2022-12-13T08:32:10.060Z,56.25
2022-12-13T08:34:37.719Z,43.45
2022-12-13T08:37:05.934Z,54.03
2022-12-13T08:39:36.287Z,50.33
2022-12-13T08:42:14.678Z,40.90
2022-12-13T08:44:44.061Z,42.28
2022-12-13T08:47:11.589Z,42.08
2022-12-13T08:49:39.247Z,44.33
2022-12-13T08:52:06.769Z,47.20
2022-12-13T08:54:35.093Z,45.60
2022-12-13T08:57:02.661Z,45.78
2022-12-13T08:59:30.281Z,48.72
2022-12-13T09:02:03.168Z,54.75
2022-12-13T09:04:32.572Z,50.67
2022-12-13T09:07:01.746Z,53.03
2022-12-13T09:09:30.143Z,55.75
2022-12-13T09:11:59.324Z,52.70
2022-12-13T09:14:33.723Z,50.28
2022-12-13T09:17:03.614Z,45.53
2022-12-13T09:19:36.764Z,52.50
2022-12-13T09:22:06.481Z,47.20
2022-12-13T09:24:42.069Z,56.72
2022-12-13T09:27:27.257Z,48.63
2022-12-13T09:29:55.773Z,52.80
2022-12-13T09:32:23.955Z,46.20
2022-12-13T09:34:51.695Z,54.50
2022-12-13T09:37:22.820Z,47.25
2022-12-13T09:39:54.937Z,54.95
2022-12-13T09:42:30.457Z,43.80
2022-12-13T09:45:22.319Z,49.42
2022-12-13T09:47:52.527Z,49.42
2022-12-13T09:50:38.542Z,46.70
2022-12-13T09:53:12.016Z,50.80
2022-12-13T09:55:55.697Z,51.42
2022-12-13T10:01:06.546Z,47.83
2022-12-13T10:03:34.672Z,46.85
2022-12-13T10:06:14.756Z,47.97
2022-12-13T10:08:59.430Z,52.47
2022-12-13T10:11:32.501Z,38.05
2022-12-13T10:14:19.246Z,55.00
2022-12-13T10:16:57.855Z,45.45
2022-12-13T10:19:37.500Z,54.88
2022-12-13T10:22:09.430Z,50.63
2022-12-13T10:24:56.633Z,50.45
2022-12-13T10:27:44.372Z,39.03
2022-12-13T10:30:27.695Z,51.13
2022-12-13T10:33:00.994Z,56.72
2022-12-13T10:35:31.241Z,45.33
2022-12-13T10:38:01.981Z,47.83
2022-12-13T10:40:36.859Z,47.92
2022-12-13T10:43:15.334Z,42.80
2022-12-13T10:45:58.965Z,47.25
2022-12-13T10:48:40.808Z,47.97
2022-12-13T10:51:13.818Z,47.75
2022-12-13T10:53:48.235Z,45.65
2022-12-13T10:56:22.808Z,41.63
2022-12-13T10:59:15.143Z,43.97
2022-12-13T11:01:44.800Z,44.85
2022-12-13T11:04:29.668Z,49.75
2022-12-13T11:07:00.088Z,45.50
2022-12-13T11:09:29.856Z,41.70
2022-12-13T11:12:19.954Z,48.72
2022-12-13T11:15:05.362Z,50.42
2022-12-13T11:17:35.913Z,45.78
2022-12-13T11:20:08.018Z,43.15
2022-12-13T11:22:38.513Z,38.00
2022-12-13T11:25:20.071Z,43.67
2022-12-13T11:28:02.671Z,39.53
2022-12-13T11:33:16.270Z,40.38
2022-12-13T11:35:47.547Z,41.45
2022-12-13T11:38:50.054Z,39.53
2022-12-13T11:41:31.420Z,38.83
2022-12-13T11:44:05.314Z,35.35
2022-12-13T11:46:47.425Z,29.17
2022-12-13T11:49:18.986Z,38.47
2022-12-13T11:51:53.151Z,33.03
2022-12-13T11:54:33.141Z,34.72
2022-12-13T11:57:08.005Z,35.33
2022-12-13T11:59:44.077Z,30.75
2022-12-13T12:02:23.394Z,39.65
2022-12-13T12:05:00.382Z,39.35
2022-12-13T12:07:38.315Z,40.13
2022-12-13T12:10:14.811Z,35.80
2022-12-13T12:12:48.314Z,34.20
2022-12-13T12:15:26.698Z,34.63
2022-12-13T12:17:56.336Z,30.48
2022-12-13T12:20:48.052Z,35.22
2022-12-13T12:23:31.835Z,35.13
2022-12-13T12:26:12.757Z,36.15
2022-12-13T12:28:50.596Z,35.45
2022-12-13T12:31:27.255Z,37.20
2022-12-13T12:34:13.331Z,34.08
2022-12-13T12:37:02.686Z,27.73
2022-12-13T12:40:17.332Z,32.33
2022-12-13T12:43:27.045Z,25.65
2022-12-13T12:46:22.695Z,38.13
2022-12-13T12:49:01.113Z,32.47
2022-12-13T12:51:57.254Z,33.53
2022-12-13T12:54:48.930Z,32.05
2022-12-13T12:57:27.273Z,31.13
2022-12-13T13:00:02.158Z,33.63
2022-12-13T13:02:48.779Z,38.70
2022-12-13T13:05:37.091Z,32.20
2022-12-13T13:08:20.106Z,39.55
2022-12-13T13:10:49.822Z,29.63
2022-12-13T13:13:50.515Z,37.10
2022-12-13T13:16:36.572Z,31.75
2022-12-13T13:19:32.596Z,29.13
2022-12-13T13:22:02.611Z,33.50
2022-12-13T13:24:33.141Z,36.90
2022-12-13T13:27:20.552Z,31.60
2022-12-13T13:29:48.292Z,31.23
2022-12-13T13:32:29.720Z,37.95
2022-12-13T13:35:29.692Z,36.97
2022-12-13T13:37:58.378Z,33.75
2022-12-13T13:40:37.783Z,34.08
2022-12-13T13:43:05.319Z,34.47
2022-12-13T13:45:54.912Z,33.55
2022-12-13T13:48:54.218Z,35.15
2022-12-13T13:52:16.813Z,38.30
2022-12-13T13:54:49.638Z,36.65
2022-12-13T13:58:10.841Z,39.65
2022-12-13T14:01:16.724Z,35.17
2022-12-13T14:04:05.916Z,41.88
2022-12-13T14:07:01.684Z,40.13
2022-12-13T14:09:48.136Z,39.22
2022-12-13T14:12:30.763Z,31.08
2022-12-13T14:18:05.966Z,37.72
2022-12-13T14:21:07.571Z,31.90
2022-12-13T14:23:56.890Z,33.33
2022-12-13T14:26:39.306Z,40.05
2022-12-13T14:29:17.268Z,40.25
2022-12-13T14:31:49.560Z,38.25
2022-12-13T14:34:22.836Z,28.02
2022-12-13T14:37:04.670Z,38.60
2022-12-13T14:39:34.606Z,47.17
2022-12-13T14:42:04.364Z,35.80
2022-12-13T14:44:35.195Z,46.25
2022-12-13T14:47:08.504Z,42.40
2022-12-13T14:49:41.678Z,40.97
2022-12-13T14:52:27.679Z,44.53
2022-12-13T14:55:00.694Z,39.90
2022-12-13T14:57:34.842Z,44.65
2022-12-13T15:00:23.021Z,43.92
2022-12-13T15:02:52.628Z,43.50
2022-12-13T15:05:35.319Z,50.35
2022-12-13T15:10:48.334Z,42.42
2022-12-13T15:13:44.133Z,39.28
2022-12-13T15:16:25.644Z,44.60
2022-12-13T15:19:10.873Z,43.63
2022-12-13T15:21:38.849Z,41.05
2022-12-13T15:24:07.369Z,41.67
2022-12-13T15:26:35.405Z,45.42
2022-12-13T15:29:10.201Z,45.97
2022-12-13T15:31:40.313Z,47.13
2022-12-13T15:34:31.038Z,45.40
2022-12-13T15:37:29.170Z,41.63
2022-12-13T15:40:01.704Z,40.50
2022-12-13T15:42:36.112Z,47.93
2022-12-13T15:45:18.330Z,44.22
2022-12-13T15:47:48.104Z,49.20
2022-12-13T15:50:32.990Z,19.45
2022-12-13T15:53:05.078Z,37.33
2022-12-13T15:55:37.317Z,39.00
2022-12-13T15:58:05.058Z,44.60
2022-12-13T16:00:36.549Z,39.75
2022-12-13T16:03:09.955Z,46.87
2022-12-13T16:05:43.073Z,44.47
2022-12-13T16:08:35.603Z,43.72
2022-12-13T16:11:03.622Z,45.22
2022-12-13T16:13:36.795Z,46.55
2022-12-13T16:16:10.545Z,47.85
2022-12-13T16:18:56.818Z,42.40
2022-12-13T16:21:25.480Z,47.20
2022-12-13T16:23:53.377Z,41.13
2022-12-13T16:26:31.133Z,42.85
2022-12-13T16:28:59.474Z,45.55
2022-12-13T16:31:35.463Z,40.65
2022-12-13T16:34:05.074Z,49.85
2022-12-13T16:36:33.050Z,43.67
2022-12-13T16:39:00.508Z,43.85
2022-12-13T16:41:28.271Z,45.78
2022-12-13T16:44:01.611Z,45.70
2022-12-13T16:47:13.270Z,30.52
2022-12-13T16:49:35.163Z,37.55
2022-12-13T16:52:04.993Z,36.47
2022-12-13T16:54:32.473Z,37.60
2022-12-13T16:57:00.021Z,32.22
2022-12-13T16:59:28.213Z,19.98
2022-12-13T17:01:55.844Z,43.03
2022-12-13T17:04:27.157Z,41.78
2022-12-13T17:06:55.567Z,37.08
2022-12-13T17:09:24.760Z,46.75
2022-12-13T17:11:52.597Z,44.85
2022-12-13T17:14:20.272Z,38.30
2022-12-13T17:16:47.867Z,43.35
2022-12-13T17:19:17.459Z,44.45
2022-12-13T17:21:45.103Z,35.15
2022-12-13T17:24:12.968Z,38.55
2022-12-13T17:26:41.616Z,31.45
2022-12-13T17:29:22.559Z,43.15
2022-12-13T17:31:50.117Z,26.35
2022-12-13T17:34:17.679Z,38.65
2022-12-13T17:36:45.308Z,27.65
2022-12-13T17:39:13.772Z,36.65
2022-12-13T17:41:41.862Z,46.78
2022-12-13T17:44:09.666Z,41.75
2022-12-13T17:46:37.300Z,27.92
2022-12-13T17:49:04.993Z,35.72
2022-12-13T17:51:32.605Z,34.83
2022-12-13T17:54:00.127Z,38.00
2022-12-13T17:56:27.715Z,33.55
2022-12-13T17:58:55.232Z,40.00
2022-12-13T18:01:25.301Z,36.83
2022-12-13T18:03:55.532Z,34.20
2022-12-13T18:06:24.600Z,43.35
2022-12-13T18:08:52.237Z,37.17
2022-12-13T18:11:36.160Z,38.20
2022-12-13T18:14:05.585Z,38.50
2022-12-13T18:16:37.468Z,40.65
2022-12-13T18:19:08.297Z,36.85
2022-12-13T18:21:36.889Z,40.58
2022-12-13T18:24:05.287Z,35.60
2022-12-13T18:26:32.853Z,42.88
2022-12-13T18:29:00.468Z,36.80
2022-12-13T18:31:28.246Z,34.67
2022-12-13T18:33:56.035Z,44.08
2022-12-13T18:36:25.357Z,32.28
2022-12-13T18:38:53.076Z,40.58
2022-12-13T18:41:28.196Z,35.55
2022-12-13T18:44:07.907Z,47.13
2022-12-13T18:46:42.235Z,36.25
2022-12-13T18:49:13.000Z,34.25
2022-12-13T18:51:40.722Z,44.33
2022-12-13T18:54:08.340Z,33.88
2022-12-13T18:56:35.803Z,37.33
2022-12-13T18:59:03.269Z,39.15
2022-12-13T19:01:31.217Z,46.65
2022-12-13T19:03:59.160Z,26.90
2022-12-13T19:06:28.459Z,36.55
2022-12-13T19:08:57.838Z,35.88
2022-12-13T19:11:27.200Z,41.40
2022-12-13T19:13:55.585Z,38.03
2022-12-13T19:16:24.380Z,45.75
2022-12-13T19:18:52.164Z,41.53
2022-12-13T19:21:21.875Z,41.85
2022-12-13T19:23:56.393Z,43.92
2022-12-13T19:26:25.861Z,36.65
2022-12-13T19:28:53.388Z,44.10
2022-12-13T19:31:25.499Z,37.20
2022-12-13T19:33:57.348Z,37.50
2022-12-13T19:36:25.128Z,43.97
2022-12-13T19:38:52.843Z,35.10
2022-12-13T19:41:20.504Z,39.97
2022-12-13T19:43:53.095Z,37.20
2022-12-13T19:46:21.353Z,35.55
2022-12-13T19:48:49.143Z,37.42
2022-12-13T19:51:17.814Z,31.67
2022-12-13T19:53:45.437Z,38.78
2022-12-13T19:56:17.517Z,37.38
2022-12-13T19:58:46.144Z,38.88
2022-12-13T20:01:14.075Z,38.80
2022-12-13T20:03:43.572Z,36.42
2022-12-13T20:06:13.345Z,32.38
2022-12-13T20:08:41.699Z,33.08
2022-12-13T20:11:13.020Z,32.95
2022-12-13T20:13:40.926Z,44.05
2022-12-13T20:16:09.258Z,35.33
2022-12-13T20:18:36.777Z,34.25
2022-12-13T20:21:12.671Z,33.55
2022-12-13T20:23:48.659Z,41.33
2022-12-13T20:26:23.608Z,35.90
2022-12-13T20:28:52.095Z,41.65
2022-12-13T20:31:22.745Z,39.53
2022-12-13T20:33:55.772Z,30.90
2022-12-13T20:36:27.495Z,36.25
2022-12-13T20:38:57.527Z,28.50
2022-12-13T20:41:29.600Z,28.67
2022-12-13T20:43:59.505Z,34.17
2022-12-13T20:46:28.635Z,26.17
2022-12-13T20:48:57.785Z,25.67
2022-12-13T20:51:28.448Z,24.75
2022-12-13T20:53:57.161Z,24.88
2022-12-13T20:56:26.924Z,15.35
2022-12-13T20:58:54.612Z,32.88
2022-12-13T21:01:24.796Z,28.95
2022-12-13T21:03:56.366Z,31.20
2022-12-13T21:06:24.269Z,34.35
2022-12-13T21:08:55.244Z,27.45
2022-12-13T21:11:26.994Z,29.40
2022-12-13T21:14:03.794Z,23.67
2022-12-13T21:16:39.471Z,36.58
2022-12-13T21:19:08.508Z,31.65
2022-12-13T21:21:36.180Z,33.00
2022-12-13T21:24:04.256Z,24.75
2022-12-13T21:26:35.645Z,30.65
2022-12-13T21:29:06.347Z,27.48
2022-12-13T21:31:34.696Z,24.85
2022-12-13T21:34:03.548Z,30.77
2022-12-13T21:36:39.299Z,25.15
2022-12-13T21:39:09.342Z,31.23
2022-12-13T21:41:36.956Z,24.38
2022-12-13T21:44:04.560Z,26.80
2022-12-13T21:47:11.511Z,23.83
2022-12-13T21:49:20.098Z,23.42
2022-12-13T21:51:48.552Z,27.50
2022-12-13T21:54:16.924Z,32.03
2022-12-13T21:57:01.713Z,32.22
2022-12-13T21:59:29.397Z,25.88
2022-12-13T22:02:14.559Z,26.77
2022-12-13T22:04:46.641Z,23.30
2022-12-13T22:07:24.894Z,25.55
2022-12-13T22:09:53.685Z,35.90
2022-12-13T22:12:39.497Z,26.38
2022-12-13T22:15:09.547Z,25.52
2022-12-13T22:17:38.502Z,14.45
2022-12-13T22:20:14.127Z,22.20
2022-12-13T22:22:44.104Z,22.33
2022-12-13T22:25:11.832Z,23.60
2022-12-13T22:27:39.343Z,22.77
2022-12-13T22:30:07.511Z,26.77
2022-12-13T22:32:35.020Z,22.73
2022-12-13T22:35:02.581Z,24.77
2022-12-13T22:37:30.374Z,29.40
2022-12-13T22:39:57.987Z,22.02
2022-12-13T22:42:25.486Z,27.23
2022-12-13T22:44:52.986Z,28.35
2022-12-13T22:47:20.607Z,25.80
2022-12-13T22:49:48.734Z,29.25
2022-12-13T22:52:17.049Z,18.98
2022-12-13T22:54:44.582Z,21.83
2022-12-13T22:57:12.102Z,28.42
2022-12-13T22:59:39.564Z,26.63
2022-12-13T23:02:07.832Z,23.95
2022-12-13T23:04:35.570Z,29.60
2022-12-13T23:07:03.103Z,27.52
2022-12-13T23:09:30.619Z,26.08
2022-12-13T23:12:16.042Z,28.77
2022-12-13T23:14:43.561Z,30.42
2022-12-13T23:17:11.053Z,26.63
2022-12-13T23:19:49.075Z,23.17
2022-12-13T23:22:20.798Z,25.00
2022-12-13T23:24:48.384Z,23.13
2022-12-13T23:27:15.943Z,21.40
2022-12-13T23:29:43.693Z,24.58
2022-12-13T23:32:11.289Z,29.13
2022-12-13T23:34:38.818Z,19.35
2022-12-13T23:37:06.344Z,31.27
2022-12-13T23:39:33.871Z,22.50
2022-12-13T23:42:01.405Z,22.08
2022-12-13T23:44:28.896Z,26.02
2022-12-13T23:46:56.388Z,24.63
2022-12-13T23:49:23.942Z,22.73
2022-12-13T23:51:51.515Z,23.25
2022-12-13T23:54:20.117Z,24.92
2022-12-13T23:56:48.596Z,21.35
2022-12-13T23:59:16.140Z,24.67
